createdAt,value
2016-08-07T00:02:09.121Z,1019.82
2016-08-07T00:05:22.601Z,1019.82
2016-08-07T00:08:36.253Z,1019.8
2016-08-07T00:11:53.764Z,1019.84
2016-08-07T00:14:58.619Z,1019.94
2016-08-07T00:18:12.568Z,1019.88
2016-08-07T00:21:26.125Z,1019.88
2016-08-07T00:24:39.651Z,1019.74
2016-08-07T00:27:53.358Z,1019.8
2016-08-07T00:31:06.960Z,1019.78
2016-08-07T00:34:20.597Z,1019.82
2016-08-07T00:37:34.029Z,1019.76
2016-08-07T00:40:51.758Z,1019.86
2016-08-07T00:43:56.529Z,1019.82
2016-08-07T00:47:10.093Z,1019.72
2016-08-07T00:50:23.775Z,1019.82
2016-08-07T00:53:37.223Z,1019.8
2016-08-07T00:56:50.867Z,1019.76
2016-08-07T01:00:04.189Z,1019.7
2016-08-07T01:03:17.547Z,1019.74
2016-08-07T01:06:30.907Z,1019.76
2016-08-07T01:09:48.469Z,1019.72
2016-08-07T01:12:53.113Z,1019.74
2016-08-07T01:16:06.546Z,1019.72
2016-08-07T01:19:20.118Z,1019.86
2016-08-07T01:22:33.682Z,1019.88
2016-08-07T01:25:48.823Z,1019.78
2016-08-07T01:28:53.694Z,1019.84
2016-08-07T01:32:07.218Z,1019.84
2016-08-07T01:35:20.602Z,1019.82
2016-08-07T01:38:33.964Z,1019.7
2016-08-07T01:41:51.211Z,1019.68
2016-08-07T01:44:55.988Z,1019.68
2016-08-07T01:48:09.536Z,1019.76
2016-08-07T01:54:36.431Z,1019.68
2016-08-07T01:57:53.904Z,1019.66
2016-08-07T02:00:58.582Z,1019.72
2016-08-07T02:04:12.202Z,1019.78
2016-08-07T02:07:25.826Z,1019.74
2016-08-07T02:10:39.456Z,1019.62
2016-08-07T02:13:53.026Z,1019.8
2016-08-07T02:17:06.349Z,1019.72
2016-08-07T02:20:19.903Z,1019.7
2016-08-07T02:23:33.512Z,1019.64
2016-08-07T02:26:51.047Z,1019.7
2016-08-07T02:29:55.799Z,1019.64
2016-08-07T02:33:09.384Z,1019.76
2016-08-07T02:39:36.479Z,1019.8
2016-08-07T02:42:53.669Z,1019.78
2016-08-07T02:45:58.431Z,1019.7
2016-08-07T02:49:11.774Z,1019.84
2016-08-07T02:52:21.863Z,1019.84
2016-08-07T02:55:35.412Z,1019.78
2016-08-07T02:58:52.738Z,1019.82
2016-08-07T03:01:57.489Z,1019.84
2016-08-07T03:05:10.855Z,1019.74
2016-08-07T03:08:24.405Z,1019.86
2016-08-07T03:11:37.993Z,1019.92
2016-08-07T03:14:51.753Z,1019.86
2016-08-07T03:18:05.280Z,1019.9
2016-08-07T03:21:18.663Z,1019.84
2016-08-07T03:24:32.010Z,1019.84
2016-08-07T03:27:49.059Z,1019.9
2016-08-07T03:30:53.865Z,1019.92
2016-08-07T03:34:07.177Z,1019.96
2016-08-07T03:37:20.522Z,1019.88
2016-08-07T03:40:33.925Z,1019.96
2016-08-07T03:43:51.530Z,1019.9
2016-08-07T03:46:56.164Z,1019.9
2016-08-07T03:50:09.604Z,1020
2016-08-07T03:53:23.092Z,1019.88
2016-08-07T03:56:36.540Z,1019.88
2016-08-07T03:59:53.888Z,1019.9
2016-08-07T04:02:58.528Z,1019.98
2016-08-07T04:06:11.932Z,1020
2016-08-07T04:09:25.610Z,1019.94
2016-08-07T04:12:39.247Z,1020.08
2016-08-07T04:15:52.520Z,1020.1
2016-08-07T04:19:05.834Z,1020.11
2016-08-07T04:22:19.090Z,1020.15
2016-08-07T04:25:32.474Z,1020.15
2016-08-07T04:28:50.113Z,1020.11
2016-08-07T04:31:54.921Z,1020
2016-08-07T04:35:08.448Z,1020.11
2016-08-07T04:38:22.024Z,1020.11
2016-08-07T04:41:35.752Z,1020.04
2016-08-07T04:44:53.074Z,1020.11
2016-08-07T04:47:57.981Z,1020.17
2016-08-07T04:51:11.200Z,1020.1
2016-08-07T04:54:24.980Z,1020.19
2016-08-07T04:57:38.631Z,1020.19
2016-08-07T05:00:52.092Z,1020.15
2016-08-07T05:04:05.736Z,1020.23
2016-08-07T05:07:19.283Z,1020.17
2016-08-07T05:10:33.075Z,1020.35
2016-08-07T05:13:50.435Z,1020.29
2016-08-07T05:16:55.227Z,1020.27
2016-08-07T05:20:09.004Z,1020.23
2016-08-07T05:23:22.709Z,1020.29
2016-08-07T05:26:36.697Z,1020.17
2016-08-07T05:29:54.272Z,1020.15
2016-08-07T05:32:59.129Z,1020.15
2016-08-07T05:36:12.031Z,1020.13
2016-08-07T05:39:25.698Z,1020.11
2016-08-07T05:42:39.446Z,1020.13
2016-08-07T05:45:53.219Z,1020.13
2016-08-07T05:49:07.051Z,1020.13
2016-08-07T05:55:34.902Z,1020.08
2016-08-07T05:58:52.629Z,1020.06
2016-08-07T06:01:57.849Z,1020.06
2016-08-07T06:05:11.852Z,1020.1
2016-08-07T06:08:25.646Z,1020.19
2016-08-07T06:11:39.726Z,1020.17
2016-08-07T06:14:53.250Z,1020.13
2016-08-07T06:18:07.153Z,1020.23
2016-08-07T06:21:21.262Z,1020.33
2016-08-07T06:24:35.207Z,1020.35
2016-08-07T06:27:53.328Z,1020.23
2016-08-07T06:30:58.777Z,1020.23
2016-08-07T06:34:12.932Z,1020.23
2016-08-07T06:40:41.379Z,1020.29
2016-08-07T06:43:55.622Z,1020.29
2016-08-07T06:47:10.182Z,1020.25
2016-08-07T06:50:24.394Z,1020.21
2016-08-07T06:53:38.727Z,1020.19
2016-08-07T06:56:53.171Z,1020.17
2016-08-07T07:00:07.832Z,1020.19
2016-08-07T07:03:22.152Z,1020.1
2016-08-07T07:06:33.681Z,1020
2016-08-07T07:09:52.267Z,1020.13
2016-08-07T07:12:58.240Z,1020.08
2016-08-07T07:16:13.012Z,1020.06
2016-08-07T07:19:27.977Z,1020.13
2016-08-07T07:22:46.737Z,1020.29
2016-08-07T07:25:52.650Z,1020.33
2016-08-07T07:29:06.277Z,1020.11
2016-08-07T07:32:20.693Z,1020.06
2016-08-07T07:35:34.889Z,1020.21
2016-08-07T07:38:53.059Z,1020.35
2016-08-07T07:41:58.560Z,1020.37
2016-08-07T07:45:12.774Z,1020.37
2016-08-07T08:04:38.886Z,1020.1
2016-08-07T08:11:08.863Z,1020.06
2016-08-07T08:14:23.952Z,1020.02
2016-08-07T08:17:39.425Z,1020.11
2016-08-07T08:20:55.230Z,1020.08
2016-08-07T08:24:10.484Z,1020.25
2016-08-07T08:27:25.258Z,1020.19
2016-08-07T08:30:39.522Z,1019.96
2016-08-07T08:33:53.712Z,1020.04
2016-08-07T08:37:08.219Z,1020.1
2016-08-07T08:40:22.923Z,1020.06
2016-08-07T08:43:37.746Z,1020.21
2016-08-07T08:46:52.448Z,1020.29
2016-08-07T08:50:06.606Z,1020.11
2016-08-07T08:53:21.318Z,1020.25
2016-08-07T08:56:36.119Z,1020.27
2016-08-07T08:59:54.630Z,1020.21
2016-08-07T09:03:00.461Z,1020.23
2016-08-07T09:06:15.379Z,1020.37
2016-08-07T09:09:30.128Z,1020.04
2016-08-07T09:12:49.162Z,1020.08
2016-08-07T09:15:55.419Z,1020.23
2016-08-07T09:19:10.037Z,1020.02
2016-08-07T09:22:24.694Z,1020.08
2016-08-07T09:25:39.236Z,1020.1
2016-08-07T09:28:53.665Z,1020.08
2016-08-07T09:32:08.178Z,1020.17
2016-08-07T09:35:22.635Z,1020.25
2016-08-07T09:38:36.904Z,1020.23
2016-08-07T09:41:55.096Z,1020.43
2016-08-07T09:45:00.718Z,1020.31
2016-08-07T09:48:14.710Z,1020.27
2016-08-07T09:51:28.224Z,1020.13
2016-08-07T09:54:46.734Z,1020.11
2016-08-07T09:57:52.568Z,1020.06
2016-08-07T10:01:07.328Z,1020.04
2016-08-07T10:04:21.418Z,1020.11
2016-08-07T10:07:35.468Z,1020.11
2016-08-07T10:10:53.567Z,1020.11
2016-08-07T10:13:59.051Z,1020.19
2016-08-07T10:17:13.270Z,1020.04
2016-08-07T10:20:27.235Z,1020.02
2016-08-07T10:23:41.619Z,1020.06
2016-08-07T10:26:55.680Z,1019.82
2016-08-07T10:30:10.081Z,1019.84
2016-08-07T10:33:24.198Z,1019.86
2016-08-07T10:36:38.317Z,1019.9
2016-08-07T10:39:52.222Z,1019.86
2016-08-07T10:43:06.366Z,1019.78
2016-08-07T10:46:20.737Z,1019.72
2016-08-07T10:49:34.945Z,1019.62
2016-08-07T10:52:52.998Z,1019.58
2016-08-07T10:55:58.686Z,1019.56
2016-08-07T10:59:12.766Z,1019.5
2016-08-07T11:02:26.935Z,1019.42
2016-08-07T11:05:41.266Z,1019.4
2016-08-07T11:08:55.238Z,1019.5
2016-08-07T11:12:09.530Z,1019.42
2016-08-07T11:15:23.907Z,1019.4
2016-08-07T11:18:38.212Z,1019.38
2016-08-07T11:21:52.048Z,1019.52
2016-08-07T11:25:06.296Z,1019.52
2016-08-07T11:28:20.646Z,1019.36
2016-08-07T11:31:34.885Z,1019.34
2016-08-07T11:34:53.194Z,1019.34
2016-08-07T11:37:58.785Z,1019.28
2016-08-07T11:41:12.956Z,1019.06
2016-08-07T11:44:27.260Z,1019.22
2016-08-07T11:47:41.210Z,1019.02
2016-08-07T11:50:55.277Z,1019.04
2016-08-07T11:54:09.456Z,1019.18
2016-08-07T11:57:23.484Z,1019
2016-08-07T12:00:37.541Z,1018.96
2016-08-07T12:03:55.671Z,1019.02
2016-08-07T12:07:00.955Z,1018.92
2016-08-07T12:10:14.538Z,1018.96
2016-08-07T12:13:25.913Z,1019.08
2016-08-07T12:16:39.916Z,1019.02
2016-08-07T12:19:53.843Z,1018.96
2016-08-07T12:23:08.078Z,1019.02
2016-08-07T12:26:22.096Z,1019.04
2016-08-07T12:29:36.076Z,1018.88
2016-08-07T12:32:54.229Z,1018.96
2016-08-07T12:35:59.693Z,1018.9
2016-08-07T12:39:13.751Z,1018.76
2016-08-07T12:42:28.094Z,1018.8
2016-08-07T12:45:46.203Z,1018.78
2016-08-07T12:48:55.675Z,1018.8
2016-08-07T12:52:00.083Z,1018.76
2016-08-07T12:55:15.393Z,1018.74
2016-08-07T12:58:29.724Z,1018.72
2016-08-07T13:01:47.904Z,1018.69
2016-08-07T13:04:53.401Z,1018.7
2016-08-07T13:08:07.694Z,1018.7
2016-08-07T13:11:21.751Z,1018.58
2016-08-07T13:14:35.734Z,1018.72
2016-08-07T13:17:53.832Z,1018.64
2016-08-07T13:20:59.355Z,1018.62
2016-08-07T13:24:13.584Z,1018.56
2016-08-07T13:27:27.842Z,1018.5
2016-08-07T13:30:46.071Z,1018.48
2016-08-07T13:33:55.327Z,1018.42
2016-08-07T13:37:00.813Z,1018.38
2016-08-07T13:40:15.029Z,1018.36
2016-08-07T13:43:29.272Z,1018.26
2016-08-07T13:46:47.055Z,1018.24
2016-08-07T13:49:52.574Z,1018.21
2016-08-07T13:53:06.767Z,1018.15
2016-08-07T13:56:20.831Z,1018.07
2016-08-07T13:59:34.918Z,1018.09
2016-08-07T14:02:53.091Z,1018.11
2016-08-07T14:05:58.631Z,1018.09
2016-08-07T14:09:12.647Z,1018.09
2016-08-07T14:12:26.950Z,1018.03
2016-08-07T14:19:16.579Z,1018.01
2016-08-07T14:22:25.887Z,1017.97
2016-08-07T14:25:39.897Z,1017.89
2016-08-07T14:28:53.544Z,1017.87
2016-08-07T14:32:07.337Z,1017.87
2016-08-07T14:35:21.540Z,1017.83
2016-08-07T14:38:35.782Z,1017.97
2016-08-07T14:41:49.878Z,1017.73
2016-08-07T14:45:07.567Z,1017.69
2016-08-07T14:48:12.721Z,1017.67
2016-08-07T14:51:26.908Z,1017.61
2016-08-07T14:54:41.149Z,1017.61
2016-08-07T14:57:55.148Z,1017.53
2016-08-07T15:01:09.209Z,1017.51
2016-08-07T15:04:23.405Z,1017.47
2016-08-07T15:07:37.501Z,1017.53
2016-08-07T15:10:51.646Z,1017.47
2016-08-07T15:14:05.732Z,1017.45
2016-08-07T15:17:19.746Z,1017.47
2016-08-07T15:20:33.814Z,1017.47
2016-08-07T15:23:48.045Z,1017.35
2016-08-07T15:27:05.976Z,1017.37
2016-08-07T15:30:11.232Z,1017.35
2016-08-07T15:33:25.382Z,1017.29
2016-08-07T15:36:39.747Z,1017.23
2016-08-07T15:43:07.950Z,1017.21
2016-08-07T15:46:21.484Z,1017.07
2016-08-07T15:49:35.666Z,1017.19
2016-08-07T15:52:49.806Z,1017.17
2016-08-07T15:56:07.822Z,1016.91
2016-08-07T15:59:13.258Z,1017.01
2016-08-07T16:02:26.135Z,1017.01
2016-08-07T16:05:41.319Z,1016.85
2016-08-07T16:08:55.319Z,1016.83
2016-08-07T16:12:09.361Z,1016.8
2016-08-07T16:15:23.648Z,1016.72
2016-08-07T16:18:37.636Z,1016.68
2016-08-07T16:21:51.627Z,1016.66
2016-08-07T16:28:20.112Z,1016.7
2016-08-07T16:31:33.847Z,1016.74
2016-08-07T16:34:48.073Z,1016.7
2016-08-07T16:38:06.039Z,1016.72
2016-08-07T16:41:11.501Z,1016.68
2016-08-07T16:44:25.370Z,1016.62
2016-08-07T16:47:39.553Z,1016.64
2016-08-07T16:50:52.479Z,1016.56
2016-08-07T16:54:07.728Z,1016.48
2016-08-07T16:57:21.839Z,1016.48
2016-08-07T17:00:35.893Z,1016.42
2016-08-07T17:03:49.961Z,1016.36
2016-08-07T17:07:08.191Z,1016.36
2016-08-07T17:13:27.711Z,1016.3
2016-08-07T17:16:41.737Z,1016.2
2016-08-07T17:19:59.769Z,1016.24
2016-08-07T17:23:09.050Z,1016.18
2016-08-07T17:26:14.368Z,1016.18
2016-08-07T17:29:28.618Z,1016.12
2016-08-07T17:32:42.188Z,1016.14
2016-08-07T17:36:00.383Z,1016.02
2016-08-07T17:39:05.790Z,1016.06
2016-08-07T17:42:20.090Z,1015.96
2016-08-07T17:45:34.067Z,1015.88
2016-08-07T17:48:48.254Z,1015.92
2016-08-07T17:52:06.127Z,1015.94
2016-08-07T17:55:11.723Z,1015.96
2016-08-07T17:58:25.846Z,1015.88
2016-08-07T18:01:39.994Z,1015.84
2016-08-07T18:04:54.143Z,1015.86
2016-08-07T18:08:08.077Z,1015.8
2016-08-07T18:11:22.037Z,1015.86
2016-08-07T18:14:36.113Z,1015.76
2016-08-07T18:17:50.278Z,1015.74
2016-08-07T18:21:07.890Z,1015.82
2016-08-07T18:24:13.130Z,1015.76
2016-08-07T18:27:26.792Z,1015.82
2016-08-07T18:30:40.593Z,1015.72
2016-08-07T18:33:54.468Z,1015.74
2016-08-07T18:37:08.094Z,1015.76
2016-08-07T18:40:21.334Z,1015.76
2016-08-07T18:43:35.061Z,1015.74
2016-08-07T18:46:49.094Z,1015.78
2016-08-07T18:50:06.635Z,1015.78
2016-08-07T18:53:11.762Z,1015.74
2016-08-07T18:56:25.261Z,1015.72
2016-08-07T18:59:38.785Z,1015.74
2016-08-07T19:02:52.575Z,1015.7
2016-08-07T19:06:06.278Z,1015.74
2016-08-07T19:09:19.153Z,1015.78
2016-08-07T19:12:31.944Z,1015.66
2016-08-07T19:15:45.296Z,1015.72
2016-08-07T19:19:02.959Z,1015.62
2016-08-07T19:22:08.406Z,1015.66
2016-08-07T19:25:21.847Z,1015.66
2016-08-07T19:28:35.977Z,1015.66
2016-08-07T19:31:49.503Z,1015.6
2016-08-07T19:35:07.106Z,1015.74
2016-08-07T19:38:12.525Z,1015.66
2016-08-07T19:41:25.798Z,1015.58
2016-08-07T19:44:39.362Z,1015.52
2016-08-07T19:47:52.724Z,1015.48
2016-08-07T19:51:06.432Z,1015.54
2016-08-07T19:54:19.879Z,1015.44
2016-08-07T19:57:32.588Z,1015.52
2016-08-07T20:00:46.019Z,1015.48
2016-08-07T20:04:03.113Z,1015.44
2016-08-07T20:07:08.292Z,1015.34
2016-08-07T20:10:21.541Z,1015.32
2016-08-07T20:13:34.677Z,1015.36
2016-08-07T20:16:48.145Z,1015.22
2016-08-07T20:20:05.563Z,1015.22
2016-08-07T20:23:10.663Z,1015.28
2016-08-07T20:26:24.143Z,1015.24
2016-08-07T20:29:37.774Z,1015.22
2016-08-07T20:32:51.075Z,1015.12
2016-08-07T20:36:07.965Z,1015.06
2016-08-07T20:39:13.070Z,1015.12
2016-08-07T20:42:26.200Z,1015.02
2016-08-07T20:45:37.171Z,1015.04
2016-08-07T20:48:50.208Z,1015.02
2016-08-07T20:52:07.457Z,1014.94
2016-08-07T20:55:12.568Z,1014.94
2016-08-07T20:58:25.549Z,1015
2016-08-07T21:01:38.850Z,1014.98
2016-08-07T21:04:52.254Z,1014.93
2016-08-07T21:08:09.662Z,1014.94
2016-08-07T21:14:28.168Z,1014.85
2016-08-07T21:17:40.927Z,1014.85
2016-08-07T21:20:54.279Z,1014.89
2016-08-07T21:24:08.039Z,1014.87
2016-08-07T21:27:21.191Z,1014.87
2016-08-07T21:30:34.923Z,1014.83
2016-08-07T21:33:48.813Z,1014.83
2016-08-07T21:37:06.548Z,1014.83
2016-08-07T21:40:11.652Z,1014.71
2016-08-07T21:43:25.264Z,1014.75
2016-08-07T21:46:39.190Z,1014.73
2016-08-07T21:49:52.661Z,1014.71
2016-08-07T21:53:09.579Z,1014.63
2016-08-07T21:56:14.483Z,1014.61
2016-08-07T21:59:28.437Z,1014.53
2016-08-07T22:02:42.347Z,1014.51
2016-08-07T22:06:00.220Z,1014.43
2016-08-07T22:09:09.158Z,1014.49
2016-08-07T22:12:14.045Z,1014.43
2016-08-07T22:15:27.622Z,1014.47
2016-08-07T22:18:40.946Z,1014.43
2016-08-07T22:21:54.031Z,1014.47
2016-08-07T22:25:07.669Z,1014.39
2016-08-07T22:28:21.354Z,1014.43
2016-08-07T22:31:34.407Z,1014.41
2016-08-07T22:34:47.834Z,1014.29
2016-08-07T22:38:04.840Z,1014.15
2016-08-07T22:41:09.882Z,1014.23
2016-08-07T22:44:23.438Z,1014.15
2016-08-07T22:47:36.377Z,1014.25
2016-08-07T22:50:50.206Z,1014.15
2016-08-07T22:54:07.394Z,1014.17
2016-08-07T22:57:12.475Z,1014.19
2016-08-07T23:00:25.975Z,1014.13
2016-08-07T23:03:39.107Z,1014.01
2016-08-07T23:06:53.001Z,1014.07
2016-08-07T23:10:06.483Z,1013.97
2016-08-07T23:13:19.870Z,1013.99
2016-08-07T23:16:33.448Z,1013.95
2016-08-07T23:19:46.826Z,1013.95
2016-08-07T23:23:04.304Z,1013.91
2016-08-07T23:26:09.162Z,1013.91
2016-08-07T23:29:22.640Z,1013.91
2016-08-07T23:32:36.326Z,1013.89
2016-08-07T23:35:50.004Z,1013.77
2016-08-07T23:39:07.748Z,1013.89
2016-08-07T23:42:12.796Z,1013.85
2016-08-07T23:45:26.077Z,1013.79
2016-08-07T23:48:39.119Z,1013.73
2016-08-07T23:51:52.829Z,1013.71
2016-08-07T23:55:06.290Z,1013.71
2016-08-07T23:58:19.797Z,1013.65
